Harkers Island, NC (28531)

11:22 PM EST on January 22, 2017 (GMT -0500)
Harbor point | | Change Station
Active Advisory: Small Craft Advisory

Elev 0 ft 34.72 °N, 76.57 °W | Updated 11 seconds ago

Rain
Rain
60.4 °F
Feels Like 60.4 °F
N
3.4
Wind Variable Wind from NE
Gusts 4.9 mph

Today
High -- | Low -- °F
--% Chance of Precip.
Yesterday
High -- | Low -- °F
Precip. -- in
Pressure 29.48 in
Visibility 5.0 miles
Clouds Few 1900 ft
Mostly Cloudy 3100 ft
Overcast 4800 ft
Dew Point 60 °F
Humidity 99%
Rainfall 0.37 in
Snow Depth Not available.
7:10 AM 5:25 PM
Waning Crescent, 21% visible
SPECI KMRH 230416Z AUTO 06006KT 5SM +RA BR FEW019 BKN031 OVC048 16/15 A2948 RMK AO2 P0004 T01610150 TSNO $
Pressure 29.48 in
Visibility 5.0 miles
Clouds Few 1900 ft
Mostly Cloudy 3100 ft
Overcast 4800 ft
Dew Point 60 °F
Humidity 99%
Rainfall 0.37 in
Snow Depth Not available.
7:10 AM 5:25 PM
Waning Crescent, 21% visible
SPECI KMRH 230416Z AUTO 06006KT 5SM +RA BR FEW019 BKN031 OVC048 16/15 A2948 RMK AO2 P0004 T01610150 TSNO $

Get Your Daily Forecast Email!

Thanks for signing up!

Be on the lookout for a verification email in your inbox.

You'll start receiving the daily forecast at 8 AM.

×

10-Day Weather Forecast

Almanac

Astronomy

Jan. 22, 2017 Rise Set
Actual Time
Civil Twilight
Nautical Twilight
Astronomical Twilight
Moon
Length of Visible Light
Length of Day
Tomorrow will be .
, % of the Moon is Illuminated

Today's Extremes

State Highs State Lows

Community

WunderPhotos

Upload Photos

1,962,540 photos uploaded!

WunderBlog® & News

Nearby

Air Quality

  Air Quality AQ Index Pollutant
Not available.

Snow Depth

Station Depth Elevation

Earthquake Activity

City Distance Mag. Time & Date
Minimum magnitude displayed is 2.5.

Coastal Water Temperatures

Place Temperature

Stations

Nearby Weather Stations

Station Location Temp. Windchill Dew Point Humidity Wind Precip. Elev Updated Type
                   

Watches & Warnings

Small Craft Advisory
Issued: 1:42 PM EST Jan. 22, 2017 – National Weather Service

... Small Craft Advisory now in effect until midnight EST Tuesday
night...

* winds... west 15 to 25 kt with gusts up to 30 kt.

* Seas... 6 to 9 feet.

Precautionary/preparedness actions...

A Small Craft Advisory means that wind speeds of 25 to 33 knots
and/or seas of 6 feet or greater are expected to produce
hazardous wave conditions to small craft. Inexperienced
mariners... especially those operating smaller vessels should
avoid navigating in these conditions.